Time;durP1;ratioP1;P1;durP2;ratioP2;P2;SDS_P1;SDS_P2;PMS_P1;PMS_P2;Temp;Humidity;BMP_temperature;BMP_pressure;BME280_temperature;BME280_humidity;BME280_pressure;Samples;Min_cycle;Max_cycle;Signal;HPM_P1;HPM_P2
2023/09/30 00:01:43;;;;;;;17.73;4.95;;;;;;;;;;5020603;28;20109;-73
2023/09/30 00:04:09;;;;;;;21.17;4.90;;;;;;;;;;5012308;28;20129;-73
2023/09/30 00:06:35;;;;;;;17.33;4.68;;;;;;;;;;5023803;28;20133;-73
2023/09/30 00:09:02;;;;;;;19.70;4.88;;;;;;;;;;5021830;28;20049;-73
2023/09/30 00:11:28;;;;;;;14.93;4.95;;;;;;;;;;5014585;28;20057;-74
2023/09/30 00:13:54;;;;;;;19.23;4.55;;;;;;;;;;5012144;28;20050;-73
2023/09/30 00:16:20;;;;;;;16.85;4.75;;;;;;;;;;5011291;28;20041;-73
2023/09/30 00:18:46;;;;;;;15.77;4.60;;;;;;;;;;5016484;28;20046;-74
2023/09/30 00:21:12;;;;;;;11.07;4.38;;;;;;;;;;5011400;28;20042;-74
2023/09/30 00:23:38;;;;;;;20.85;5.05;;;;;;;;;;5011884;28;20041;-74
2023/09/30 00:26:05;;;;;;;16.80;5.03;;;;;;;;;;5011682;28;20367;-73
2023/09/30 00:28:31;;;;;;;22.25;4.82;;;;;;;;;;5011762;28;20060;-74
2023/09/30 00:30:57;;;;;;;12.77;4.60;;;;;;;;;;5015866;28;20116;-74
2023/09/30 00:33:23;;;;;;;16.83;4.95;;;;;;;;;;5022637;28;20451;-74
2023/09/30 00:35:49;;;;;;;17.38;5.30;;;;;;;;;;5023084;28;20164;-74
2023/09/30 00:38:15;;;;;;;18.35;4.70;;;;;;;;;;5011349;28;20045;-73
2023/09/30 00:40:47;;;;;;;16.38;4.55;;;;;;;;;;5017579;28;20037;-74
2023/09/30 00:43:18;;;;;;;18.08;4.68;;;;;;;;;;5021111;28;20057;-74
2023/09/30 00:45:44;;;;;;;13.60;4.68;;;;;;;;;;5013739;28;20395;-74
2023/09/30 00:48:11;;;;;;;14.45;4.70;;;;;;;;;;5019084;28;20494;-74
2023/09/30 00:50:37;;;;;;;13.88;4.97;;;;;;;;;;5023269;28;20049;-74
2023/09/30 00:53:04;;;;;;;14.95;4.70;;;;;;;;;;5020317;28;20514;-74
2023/09/30 00:55:30;;;;;;;14.68;4.65;;;;;;;;;;5022761;28;20037;-74
2023/09/30 00:57:57;;;;;;;18.02;4.80;;;;;;;;;;5020121;28;20085;-74
2023/09/30 01:00:25;;;;;;;16.20;4.80;;;;;;;;;;5015406;28;20049;-74
2023/09/30 01:02:53;;;;;;;17.08;4.53;;;;;;;;;;5017463;28;20053;-74
2023/09/30 01:05:19;;;;;;;15.30;5.03;;;;;;;;;;5013346;28;20042;-74
2023/09/30 01:07:45;;;;;;;16.33;4.93;;;;;;;;;;5011425;28;20041;-74
2023/09/30 01:10:11;;;;;;;13.00;4.53;;;;;;;;;;5022492;28;20077;-74
2023/09/30 01:12:37;;;;;;;14.15;4.80;;;;;;;;;;5025209;28;20173;-74
2023/09/30 01:15:06;;;;;;;18.90;5.00;;;;;;;;;;5016747;28;20037;-74
2023/09/30 01:17:32;;;;;;;16.08;4.93;;;;;;;;;;5039145;28;20049;-74
2023/09/30 01:20:04;;;;;;;13.70;4.95;;;;;;;;;;5025159;28;20042;-74
2023/09/30 01:22:30;;;;;;;18.88;4.95;;;;;;;;;;5016322;28;20405;-74
2023/09/30 01:24:56;;;;;;;17.05;5.13;;;;;;;;;;5015051;28;21092;-74
2023/09/30 01:27:23;;;;;;;16.83;4.72;;;;;;;;;;5014527;28;20084;-74
2023/09/30 01:29:50;;;;;;;14.05;4.90;;;;;;;;;;5015247;28;20070;-74
2023/09/30 01:32:16;;;;;;;12.55;4.40;;;;;;;;;;5025720;28;20050;-74
2023/09/30 01:34:42;;;;;;;16.98;4.60;;;;;;;;;;5015180;28;20342;-74
2023/09/30 01:37:08;;;;;;;13.50;4.38;;;;;;;;;;5021102;28;20076;-74
2023/09/30 01:39:34;;;;;;;13.40;4.38;;;;;;;;;;5016530;28;20184;-74
2023/09/30 01:42:00;;;;;;;12.02;4.43;;;;;;;;;;5022313;28;20128;-74
2023/09/30 01:44:27;;;;;;;16.17;4.85;;;;;;;;;;5015938;28;20084;-74
2023/09/30 01:46:53;;;;;;;17.55;5.07;;;;;;;;;;5020879;28;20053;-74
2023/09/30 01:49:19;;;;;;;15.52;4.78;;;;;;;;;;5014795;28;20042;-74
2023/09/30 01:51:45;;;;;;;15.00;4.80;;;;;;;;;;5019624;28;20045;-73
2023/09/30 01:54:11;;;;;;;14.35;4.50;;;;;;;;;;5017869;28;20057;-74
2023/09/30 01:56:38;;;;;;;14.40;4.60;;;;;;;;;;5004795;28;20382;-74
2023/09/30 01:59:04;;;;;;;11.98;4.30;;;;;;;;;;5034781;28;20421;-74
2023/09/30 02:01:30;;;;;;;16.20;4.22;;;;;;;;;;5033703;28;20041;-74
2023/09/30 02:03:56;;;;;;;11.98;4.45;;;;;;;;;;5023012;28;20089;-74
2023/09/30 02:06:22;;;;;;;12.07;4.43;;;;;;;;;;5021094;28;20512;-74
2023/09/30 02:08:48;;;;;;;13.77;4.53;;;;;;;;;;5014907;28;20056;-74
2023/09/30 02:11:14;;;;;;;14.55;4.50;;;;;;;;;;5015084;28;20125;-74
2023/09/30 02:13:41;;;;;;;12.18;4.68;;;;;;;;;;5028152;28;20037;-75
2023/09/30 02:16:12;;;;;;;13.38;4.55;;;;;;;;;;5020146;28;20137;-74
2023/09/30 02:18:39;;;;;;;14.52;5.18;;;;;;;;;;5021016;28;20037;-74
2023/09/30 02:21:05;;;;;;;13.68;4.90;;;;;;;;;;5022839;28;20096;-74
2023/09/30 02:23:31;;;;;;;12.02;4.38;;;;;;;;;;5015038;28;20487;-74
2023/09/30 02:25:57;;;;;;;12.75;4.65;;;;;;;;;;5027761;28;20048;-74
2023/09/30 02:28:23;;;;;;;14.02;4.45;;;;;;;;;;5024290;28;20048;-74
2023/09/30 02:30:49;;;;;;;17.25;4.75;;;;;;;;;;5015331;28;20046;-74
2023/09/30 02:33:15;;;;;;;14.90;4.78;;;;;;;;;;5024765;28;20049;-74
2023/09/30 02:35:45;;;;;;;18.48;5.07;;;;;;;;;;5017226;28;20034;-74
2023/09/30 02:38:12;;;;;;;15.50;5.18;;;;;;;;;;5017735;28;20042;-74
2023/09/30 02:40:40;;;;;;;14.57;4.68;;;;;;;;;;5013564;28;20124;-74
2023/09/30 02:43:06;;;;;;;13.95;4.50;;;;;;;;;;5024682;28;20050;-74
2023/09/30 02:45:32;;;;;;;17.90;5.07;;;;;;;;;;5014954;28;20053;-74
2023/09/30 02:47:58;;;;;;;14.48;4.88;;;;;;;;;;5018507;28;20136;-74
2023/09/30 02:50:24;;;;;;;13.85;4.82;;;;;;;;;;5022802;28;20473;-74
2023/09/30 02:52:50;;;;;;;12.75;4.30;;;;;;;;;;5027548;28;20382;-74
2023/09/30 02:55:16;;;;;;;16.92;5.07;;;;;;;;;;5029327;28;20056;-74
2023/09/30 02:57:43;;;;;;;11.95;4.72;;;;;;;;;;5024017;28;20561;-74
2023/09/30 03:00:25;;;;;;;12.82;4.28;;;;;;;;;;5014614;28;20096;-74
2023/09/30 03:02:55;;;;;;;15.88;4.85;;;;;;;;;;5040339;28;20116;-74
2023/09/30 03:05:23;;;;;;;14.23;4.70;;;;;;;;;;5013295;28;20402;-74
2023/09/30 03:07:52;;;;;;;13.75;4.43;;;;;;;;;;5024942;28;20049;-74
2023/09/30 03:10:20;;;;;;;13.43;4.30;;;;;;;;;;5014445;28;20065;-74
2023/09/30 03:12:49;;;;;;;13.57;4.47;;;;;;;;;;5013033;28;20053;-74
2023/09/30 03:15:16;;;;;;;13.27;4.50;;;;;;;;;;5013996;28;20038;-74
2023/09/30 03:17:43;;;;;;;14.80;4.65;;;;;;;;;;5013871;28;20118;-73
2023/09/30 03:20:14;;;;;;;14.85;4.50;;;;;;;;;;5024950;28;20046;-73
2023/09/30 03:22:40;;;;;;;15.43;4.75;;;;;;;;;;5014138;28;20053;-73
2023/09/30 03:25:08;;;;;;;16.17;4.70;;;;;;;;;;5013850;28;20042;-73
2023/09/30 03:27:35;;;;;;;16.20;4.40;;;;;;;;;;5013896;28;20060;-75
2023/09/30 03:30:01;;;;;;;14.73;5.50;;;;;;;;;;5019719;28;20053;-74
2023/09/30 03:32:29;;;;;;;15.07;4.57;;;;;;;;;;5013134;28;20058;-74
2023/09/30 03:34:59;;;;;;;14.05;4.18;;;;;;;;;;5012063;28;20516;-73
2023/09/30 03:37:26;;;;;;;10.50;4.03;;;;;;;;;;5014966;28;20049;-74
2023/09/30 03:39:54;;;;;;;21.08;4.70;;;;;;;;;;5024857;28;20046;-73
2023/09/30 03:42:20;;;;;;;14.27;4.70;;;;;;;;;;5013890;28;20169;-74
2023/09/30 03:44:46;;;;;;;13.55;4.63;;;;;;;;;;5024164;28;20200;-74
2023/09/30 03:47:11;;;;;;;11.25;4.07;;;;;;;;;;5017185;28;20041;-73
2023/09/30 03:49:38;;;;;;;15.70;4.50;;;;;;;;;;5030477;28;20045;-74
2023/09/30 03:52:06;;;;;;;14.95;4.93;;;;;;;;;;5021006;28;20375;-74
2023/09/30 03:54:32;;;;;;;11.60;4.50;;;;;;;;;;5021931;28;20042;-73
2023/09/30 03:56:59;;;;;;;14.35;4.25;;;;;;;;;;5018356;28;20046;-74
2023/09/30 03:59:26;;;;;;;11.80;4.50;;;;;;;;;;5012613;28;20049;-74
2023/09/30 04:01:53;;;;;;;10.10;3.90;;;;;;;;;;5005958;28;20133;-73
2023/09/30 04:04:21;;;;;;;12.68;4.45;;;;;;;;;;5029920;28;20084;-74
2023/09/30 04:06:47;;;;;;;12.90;4.20;;;;;;;;;;5013643;28;20042;-74
2023/09/30 04:09:16;;;;;;;15.15;5.25;;;;;;;;;;5016869;28;20046;-73
2023/09/30 04:11:42;;;;;;;13.05;4.38;;;;;;;;;;5011602;28;20042;-73
2023/09/30 04:14:08;;;;;;;12.80;4.40;;;;;;;;;;5024014;28;20052;-73
2023/09/30 04:16:35;;;;;;;14.13;4.43;;;;;;;;;;5026694;28;20371;-73
2023/09/30 04:19:01;;;;;;;13.00;5.07;;;;;;;;;;5013149;28;20084;-73
2023/09/30 04:21:29;;;;;;;14.73;4.80;;;;;;;;;;5020299;28;20191;-73
2023/09/30 04:23:56;;;;;;;12.40;4.78;;;;;;;;;;5012782;28;20507;-74
2023/09/30 04:26:22;;;;;;;13.90;4.60;;;;;;;;;;5012437;28;20041;-74
2023/09/30 04:28:49;;;;;;;13.73;4.78;;;;;;;;;;5011436;28;20131;-74
2023/09/30 04:31:15;;;;;;;15.20;5.03;;;;;;;;;;5012709;28;20046;-73
2023/09/30 04:33:41;;;;;;;12.32;4.60;;;;;;;;;;5016541;28;20042;-74
2023/09/30 04:36:11;;;;;;;15.30;5.10;;;;;;;;;;5011524;28;20060;-73
2023/09/30 04:38:39;;;;;;;13.05;4.93;;;;;;;;;;5025124;28;20045;-73
2023/09/30 04:41:07;;;;;;;15.75;4.70;;;;;;;;;;5011199;28;20124;-73
2023/09/30 04:43:33;;;;;;;14.68;4.63;;;;;;;;;;5022932;28;20446;-74
2023/09/30 04:46:00;;;;;;;15.13;4.57;;;;;;;;;;5024797;28;20057;-74
2023/09/30 04:48:26;;;;;;;16.58;5.50;;;;;;;;;;5011783;28;20046;-74
2023/09/30 04:50:52;;;;;;;14.90;5.20;;;;;;;;;;5022963;28;20050;-73
2023/09/30 04:53:18;;;;;;;16.65;5.28;;;;;;;;;;5040129;28;20452;-74
2023/09/30 04:55:45;;;;;;;16.00;5.63;;;;;;;;;;5022764;28;20044;-74
2023/09/30 04:58:12;;;;;;;14.15;5.40;;;;;;;;;;5021001;28;20163;-74
2023/09/30 05:00:39;;;;;;;15.25;5.35;;;;;;;;;;5018351;28;20046;-73
2023/09/30 05:03:05;;;;;;;15.75;6.32;;;;;;;;;;5023678;28;20045;-73
2023/09/30 05:05:31;;;;;;;16.58;5.50;;;;;;;;;;5011862;28;20393;-73
2023/09/30 05:07:58;;;;;;;12.98;5.68;;;;;;;;;;5016417;28;20107;-73
2023/09/30 05:10:25;;;;;;;15.60;6.07;;;;;;;;;;5018894;28;20041;-73
2023/09/30 05:12:54;;;;;;;17.23;6.13;;;;;;;;;;5016954;28;20045;-74
2023/09/30 05:15:20;;;;;;;17.52;6.00;;;;;;;;;;5017770;28;20049;-74
2023/09/30 05:17:47;;;;;;;15.48;6.45;;;;;;;;;;5023005;28;20406;-74
2023/09/30 05:20:13;;;;;;;15.27;6.40;;;;;;;;;;5027811;28;20118;-73
2023/09/30 05:22:45;;;;;;;15.55;6.80;;;;;;;;;;5027558;28;20081;-73
2023/09/30 05:25:12;;;;;;;17.25;6.75;;;;;;;;;;5016765;28;20052;-73
2023/09/30 05:27:38;;;;;;;17.90;7.05;;;;;;;;;;5007692;28;20042;-73
2023/09/30 05:30:07;;;;;;;14.35;6.70;;;;;;;;;;5021212;28;20042;-73
2023/09/30 05:32:34;;;;;;;16.77;6.47;;;;;;;;;;5022760;28;20465;-74
2023/09/30 05:35:03;;;;;;;16.25;7.00;;;;;;;;;;5022043;28;20043;-73
2023/09/30 05:37:29;;;;;;;14.23;6.53;;;;;;;;;;5011745;28;20149;-74
2023/09/30 05:39:55;;;;;;;15.07;6.75;;;;;;;;;;5020959;28;20113;-74
2023/09/30 05:42:22;;;;;;;18.45;7.57;;;;;;;;;;5013760;28;20401;-74
2023/09/30 05:44:48;;;;;;;18.77;7.53;;;;;;;;;;5020789;28;20401;-74
2023/09/30 05:47:15;;;;;;;16.77;7.75;;;;;;;;;;5026901;28;20457;-74
2023/09/30 05:49:41;;;;;;;14.65;7.20;;;;;;;;;;5026053;28;20053;-74
2023/09/30 05:52:07;;;;;;;18.52;8.35;;;;;;;;;;5026437;28;20090;-74
2023/09/30 05:54:33;;;;;;;18.95;8.15;;;;;;;;;;5019525;28;20497;-74
2023/09/30 05:57:00;;;;;;;17.38;8.48;;;;;;;;;;5014058;28;20125;-74
2023/09/30 05:59:27;;;;;;;19.20;9.05;;;;;;;;;;5014336;28;20095;-73
2023/09/30 06:01:54;;;;;;;22.05;8.90;;;;;;;;;;5013601;28;20046;-74
2023/09/30 06:04:20;;;;;;;18.13;8.60;;;;;;;;;;5015769;28;20045;-73
2023/09/30 06:06:46;;;;;;;16.58;8.40;;;;;;;;;;5015064;28;20398;-73
2023/09/30 06:09:13;;;;;;;16.63;8.35;;;;;;;;;;5026352;28;20038;-74
2023/09/30 06:11:41;;;;;;;20.15;8.63;;;;;;;;;;5029985;28;20045;-73
2023/09/30 06:14:07;;;;;;;19.08;8.60;;;;;;;;;;5023385;28;20133;-74
2023/09/30 06:16:34;;;;;;;21.70;9.02;;;;;;;;;;5014218;28;20130;-74
2023/09/30 06:19:01;;;;;;;19.88;8.73;;;;;;;;;;5020942;28;20050;-74
2023/09/30 06:21:29;;;;;;;20.67;8.80;;;;;;;;;;5015121;28;20096;-74
2023/09/30 06:23:55;;;;;;;18.63;8.90;;;;;;;;;;5013774;28;20058;-74
2023/09/30 06:26:21;;;;;;;19.15;8.77;;;;;;;;;;5013629;28;20115;-74
2023/09/30 06:28:48;;;;;;;17.85;8.88;;;;;;;;;;5014742;28;20410;-74
2023/09/30 06:31:15;;;;;;;19.75;8.50;;;;;;;;;;5025623;28;20430;-74
2023/09/30 06:33:41;;;;;;;19.80;8.90;;;;;;;;;;5013850;28;20072;-73
2023/09/30 06:36:14;;;;;;;21.00;8.27;;;;;;;;;;5013472;28;20089;-73
2023/09/30 06:38:41;;;;;;;18.05;8.65;;;;;;;;;;5014887;28;20057;-74
2023/09/30 06:41:08;;;;;;;17.40;7.75;;;;;;;;;;5013536;28;20062;-73
2023/09/30 06:43:35;;;;;;;15.25;8.45;;;;;;;;;;5017066;28;20081;-73
2023/09/30 06:46:10;;;;;;;17.58;8.52;;;;;;;;;;5015081;28;20125;-73
2023/09/30 06:48:37;;;;;;;17.63;8.38;;;;;;;;;;5014954;28;20074;-73
2023/09/30 06:51:03;;;;;;;18.73;7.57;;;;;;;;;;5030136;28;20120;-73
2023/09/30 06:53:29;;;;;;;13.77;7.57;;;;;;;;;;5013078;28;20038;-73
2023/09/30 06:55:55;;;;;;;16.92;7.47;;;;;;;;;;5022408;28;20052;-73
2023/09/30 06:58:22;;;;;;;13.55;7.28;;;;;;;;;;5018136;28;20132;-73
2023/09/30 07:00:48;;;;;;;16.85;7.50;;;;;;;;;;5020010;28;20049;-73
2023/09/30 07:03:15;;;;;;;15.20;6.88;;;;;;;;;;5017584;28;20057;-73
2023/09/30 07:05:41;;;;;;;14.50;6.53;;;;;;;;;;5013200;28;20395;-73
2023/09/30 07:08:07;;;;;;;17.63;7.03;;;;;;;;;;5019187;28;20061;-73
2023/09/30 07:10:34;;;;;;;14.23;7.05;;;;;;;;;;5022389;28;20121;-74
2023/09/30 07:13:03;;;;;;;15.82;7.20;;;;;;;;;;5013553;28;20052;-74
2023/09/30 07:15:29;;;;;;;15.88;7.10;;;;;;;;;;5023728;28;20475;-73
2023/09/30 07:17:56;;;;;;;16.08;7.15;;;;;;;;;;5027820;28;20121;-73
2023/09/30 07:20:22;;;;;;;14.52;6.85;;;;;;;;;;4997514;28;20060;-73
2023/09/30 07:22:49;;;;;;;16.23;7.15;;;;;;;;;;5013205;28;20453;-73
2023/09/30 07:25:16;;;;;;;14.85;6.82;;;;;;;;;;5013262;28;20122;-73
2023/09/30 07:27:45;;;;;;;12.63;6.60;;;;;;;;;;5012724;28;20068;-74
2023/09/30 07:30:12;;;;;;;13.88;6.68;;;;;;;;;;5012415;28;20049;-74
2023/09/30 07:32:38;;;;;;;13.38;6.30;;;;;;;;;;5017406;28;20045;-74
2023/09/30 07:35:04;;;;;;;13.43;6.15;;;;;;;;;;5019981;28;20046;-73
2023/09/30 07:37:30;;;;;;;13.73;6.40;;;;;;;;;;5015718;28;20077;-73
2023/09/30 07:39:56;;;;;;;14.05;6.88;;;;;;;;;;5013933;28;20046;-74
2023/09/30 07:42:23;;;;;;;15.73;6.72;;;;;;;;;;5012215;28;20402;-74
2023/09/30 07:44:49;;;;;;;15.45;6.32;;;;;;;;;;5011642;28;20046;-74
2023/09/30 07:47:15;;;;;;;11.23;5.85;;;;;;;;;;5020003;28;20041;-74
2023/09/30 07:49:41;;;;;;;14.43;6.40;;;;;;;;;;5026581;28;20124;-74
2023/09/30 07:52:08;;;;;;;12.90;5.95;;;;;;;;;;5013544;28;20073;-75
2023/09/30 07:54:34;;;;;;;14.00;6.05;;;;;;;;;;5026079;28;20045;-74
2023/09/30 07:57:00;;;;;;;12.32;5.93;;;;;;;;;;5028994;28;20429;-75
2023/09/30 07:59:26;;;;;;;13.05;6.05;;;;;;;;;;5012855;28;20050;-74
2023/09/30 08:01:53;;;;;;;14.98;6.22;;;;;;;;;;5011054;28;20054;-75
2023/09/30 08:04:19;;;;;;;12.32;6.20;;;;;;;;;;5012172;28;20058;-74
2023/09/30 08:06:45;;;;;;;15.40;6.28;;;;;;;;;;5024832;28;20044;-74
2023/09/30 08:09:15;;;;;;;13.57;5.60;;;;;;;;;;5018988;28;20084;-75
2023/09/30 08:11:41;;;;;;;14.43;6.00;;;;;;;;;;5011662;28;20038;-74
2023/09/30 08:14:09;;;;;;;11.65;5.50;;;;;;;;;;5028142;28;20352;-74
2023/09/30 08:16:35;;;;;;;16.13;5.72;;;;;;;;;;5027954;28;20046;-74
2023/09/30 08:19:01;;;;;;;15.48;5.93;;;;;;;;;;5013028;28;20490;-74
2023/09/30 08:21:27;;;;;;;14.07;5.53;;;;;;;;;;5011228;28;20054;-75
2023/09/30 08:23:54;;;;;;;11.48;5.30;;;;;;;;;;5012826;28;20466;-74
2023/09/30 08:26:20;;;;;;;11.75;5.05;;;;;;;;;;5012658;28;20046;-74
2023/09/30 08:28:46;;;;;;;14.20;4.95;;;;;;;;;;5011412;28;20049;-74
2023/09/30 08:31:12;;;;;;;10.13;4.47;;;;;;;;;;5012085;28;20175;-74
2023/09/30 08:33:43;;;;;;;12.50;4.60;;;;;;;;;;5012986;28;20041;-74
2023/09/30 08:36:10;;;;;;;9.10;4.22;;;;;;;;;;5012637;28;20514;-74
2023/09/30 08:38:40;;;;;;;10.50;4.35;;;;;;;;;;5011258;28;20045;-75
2023/09/30 08:41:07;;;;;;;9.90;4.35;;;;;;;;;;5011278;28;20401;-74
2023/09/30 08:43:38;;;;;;;12.23;4.13;;;;;;;;;;5011118;28;20054;-75
2023/09/30 08:46:05;;;;;;;11.93;4.13;;;;;;;;;;5015303;28;20914;-74
2023/09/30 08:48:32;;;;;;;12.13;3.95;;;;;;;;;;5012735;28;20041;-74
2023/09/30 08:50:59;;;;;;;8.60;3.30;;;;;;;;;;5010884;28;20138;-77
2023/09/30 08:53:26;;;;;;;11.18;4.05;;;;;;;;;;5010801;28;20132;-75
2023/09/30 08:55:56;;;;;;;14.55;3.78;;;;;;;;;;5010643;28;20049;-74
2023/09/30 08:58:27;;;;;;;10.48;3.75;;;;;;;;;;4999699;28;20129;-75
2023/09/30 09:00:53;;;;;;;8.55;2.83;;;;;;;;;;5012099;28;20494;-74
2023/09/30 09:03:20;;;;;;;10.80;3.25;;;;;;;;;;5021173;28;20050;-75
2023/09/30 09:05:46;;;;;;;11.93;3.25;;;;;;;;;;5012258;28;20367;-74
2023/09/30 09:08:13;;;;;;;7.57;3.22;;;;;;;;;;5020172;28;20058;-74
2023/09/30 09:10:56;;;;;;;8.18;3.20;;;;;;;;;;5025307;28;20037;-74
2023/09/30 09:13:22;;;;;;;9.07;2.83;;;;;;;;;;5036422;28;20037;-74
2023/09/30 09:15:48;;;;;;;10.93;3.67;;;;;;;;;;5041569;28;20084;-74
2023/09/30 09:18:31;;;;;;;11.32;2.83;;;;;;;;;;5016743;28;20042;-74
2023/09/30 09:21:18;;;;;;;10.48;3.10;;;;;;;;;;5012269;28;20045;-74
2023/09/30 09:23:44;;;;;;;9.18;3.22;;;;;;;;;;5013749;28;20057;-74
2023/09/30 09:26:17;;;;;;;11.45;3.20;;;;;;;;;;4994175;28;20379;-74
2023/09/30 09:28:43;;;;;;;8.60;3.17;;;;;;;;;;5011002;28;20096;-74
2023/09/30 09:31:22;;;;;;;9.55;3.10;;;;;;;;;;5010551;28;20052;-74
2023/09/30 09:33:49;;;;;;;9.10;3.40;;;;;;;;;;5013040;28;20590;-74
2023/09/30 09:36:15;;;;;;;10.15;3.40;;;;;;;;;;5014117;28;20104;-74
2023/09/30 09:38:49;;;;;;;9.82;3.15;;;;;;;;;;5014969;28;20462;-74
2023/09/30 09:41:16;;;;;;;7.80;2.83;;;;;;;;;;5018244;28;20057;-74
2023/09/30 09:43:43;;;;;;;9.70;3.33;;;;;;;;;;5015678;28;20340;-75
2023/09/30 09:46:10;;;;;;;8.98;3.20;;;;;;;;;;5013809;28;20049;-75
2023/09/30 09:48:36;;;;;;;9.10;3.30;;;;;;;;;;5016271;28;20386;-75
2023/09/30 09:51:05;;;;;;;10.30;3.13;;;;;;;;;;5017291;28;20136;-75
2023/09/30 09:53:31;;;;;;;10.38;3.45;;;;;;;;;;5028320;28;20041;-74
2023/09/30 09:56:00;;;;;;;10.20;3.03;;;;;;;;;;5014646;28;20200;-74
2023/09/30 09:58:31;;;;;;;9.18;3.42;;;;;;;;;;5028466;28;20115;-74
2023/09/30 10:00:58;;;;;;;8.13;3.20;;;;;;;;;;5025047;28;20053;-74
2023/09/30 10:03:24;;;;;;;10.02;3.40;;;;;;;;;;5021780;28;20134;-75
2023/09/30 10:05:50;;;;;;;9.95;3.30;;;;;;;;;;5017268;28;20401;-81
2023/09/30 10:08:18;;;;;;;10.13;2.95;;;;;;;;;;5016465;28;20060;-74
2023/09/30 10:10:45;;;;;;;8.05;2.72;;;;;;;;;;5014065;28;20084;-74
2023/09/30 10:13:31;;;;;;;6.32;2.55;;;;;;;;;;5012923;28;20050;-74
2023/09/30 10:15:57;;;;;;;11.25;2.60;;;;;;;;;;5013017;28;20145;-74
2023/09/30 10:18:23;;;;;;;9.45;2.58;;;;;;;;;;5016259;28;20133;-74
2023/09/30 10:20:49;;;;;;;5.72;2.33;;;;;;;;;;5015000;28;20056;-75
2023/09/30 10:23:19;;;;;;;7.55;2.30;;;;;;;;;;5013587;28;20084;-75
2023/09/30 10:25:49;;;;;;;8.75;2.38;;;;;;;;;;5017803;28;20124;-74
2023/09/30 10:28:33;;;;;;;8.77;2.55;;;;;;;;;;5020031;28;20040;-73
2023/09/30 10:31:13;;;;;;;8.95;2.35;;;;;;;;;;5027405;28;20050;-73
2023/09/30 10:33:58;;;;;;;8.65;2.40;;;;;;;;;;5013968;28;20042;-74
2023/09/30 10:36:27;;;;;;;10.32;2.70;;;;;;;;;;5014619;28;20042;-74
2023/09/30 10:38:53;;;;;;;7.18;2.30;;;;;;;;;;5027461;28;20092;-74
2023/09/30 10:41:38;;;;;;;8.43;2.47;;;;;;;;;;5014514;28;20042;-74
2023/09/30 10:44:23;;;;;;;6.13;2.33;;;;;;;;;;5025485;28;20042;-74
2023/09/30 10:46:50;;;;;;;8.50;2.42;;;;;;;;;;5013069;28;20046;-74
2023/09/30 10:49:25;;;;;;;7.18;2.10;;;;;;;;;;5014594;28;20085;-74
2023/09/30 10:51:52;;;;;;;8.13;2.30;;;;;;;;;;5013649;28;20054;-74
2023/09/30 10:54:25;;;;;;;7.40;2.10;;;;;;;;;;5014453;28;20184;-73
2023/09/30 10:56:52;;;;;;;7.80;2.38;;;;;;;;;;5020774;28;20375;-73
2023/09/30 10:59:25;;;;;;;8.05;2.38;;;;;;;;;;5013191;28;20057;-74
2023/09/30 11:01:51;;;;;;;8.77;2.10;;;;;;;;;;5013992;28;20049;-74
2023/09/30 11:04:19;;;;;;;7.22;2.20;;;;;;;;;;5014045;28;20504;-74
2023/09/30 11:06:45;;;;;;;7.03;2.10;;;;;;;;;;5014262;28;20046;-74
2023/09/30 11:09:16;;;;;;;8.75;2.20;;;;;;;;;;5014481;28;20042;-74
2023/09/30 11:11:50;;;;;;;8.82;2.65;;;;;;;;;;5029460;28;20108;-74
2023/09/30 11:14:19;;;;;;;6.85;2.03;;;;;;;;;;5012751;28;20148;-74
2023/09/30 11:16:45;;;;;;;10.40;2.42;;;;;;;;;;5014200;28;20038;-73
2023/09/30 11:19:12;;;;;;;6.63;2.20;;;;;;;;;;5013786;28;20045;-74
2023/09/30 11:21:39;;;;;;;6.78;2.53;;;;;;;;;;5012836;28;20457;-73
2023/09/30 11:24:06;;;;;;;10.23;2.58;;;;;;;;;;5013584;28;20054;-75
2023/09/30 11:26:33;;;;;;;7.80;2.13;;;;;;;;;;5012735;28;20158;-74
2023/09/30 11:29:28;;;;;;;8.68;2.35;;;;;;;;;;5012657;28;20052;-74
2023/09/30 11:31:55;;;;;;;6.20;2.30;;;;;;;;;;5020712;28;20057;-73
2023/09/30 11:34:32;;;;;;;7.78;2.15;;;;;;;;;;4996038;28;20045;-73
2023/09/30 11:36:58;;;;;;;8.73;2.35;;;;;;;;;;5012410;28;20050;-73
2023/09/30 11:39:25;;;;;;;7.30;2.22;;;;;;;;;;5015458;28;20117;-73
2023/09/30 11:41:52;;;;;;;6.80;1.90;;;;;;;;;;5011979;28;20094;-73
2023/09/30 11:44:18;;;;;;;8.52;2.10;;;;;;;;;;5012950;28;20120;-74
2023/09/30 11:47:11;;;;;;;9.20;2.30;;;;;;;;;;5013242;28;20121;-73
2023/09/30 11:49:38;;;;;;;7.60;2.25;;;;;;;;;;5020686;28;20050;-73
2023/09/30 11:52:07;;;;;;;5.47;2.10;;;;;;;;;;5016091;28;20057;-73
2023/09/30 11:54:43;;;;;;;11.70;2.45;;;;;;;;;;5013265;28;20050;-73
2023/09/30 11:57:11;;;;;;;10.40;2.40;;;;;;;;;;5020597;28;20437;-73
2023/09/30 11:59:40;;;;;;;8.63;2.80;;;;;;;;;;5013226;28;20050;-73
2023/09/30 12:02:08;;;;;;;7.22;2.20;;;;;;;;;;5013368;28;20095;-74
2023/09/30 12:04:34;;;;;;;6.32;2.10;;;;;;;;;;5013413;28;20125;-73
2023/09/30 12:07:00;;;;;;;7.53;2.10;;;;;;;;;;5012629;28;20498;-73
2023/09/30 12:09:27;;;;;;;9.45;2.15;;;;;;;;;;5012918;28;20512;-73
2023/09/30 12:11:54;;;;;;;9.68;2.45;;;;;;;;;;5012522;28;20046;-73
2023/09/30 12:14:23;;;;;;;8.50;2.33;;;;;;;;;;5011788;28;20042;-73
2023/09/30 12:16:50;;;;;;;9.07;2.30;;;;;;;;;;5011733;28;20069;-73
2023/09/30 12:19:17;;;;;;;8.52;2.08;;;;;;;;;;5011095;28;20049;-73
2023/09/30 12:21:46;;;;;;;6.57;2.17;;;;;;;;;;5011410;28;20206;-74
2023/09/30 12:24:16;;;;;;;7.30;2.60;;;;;;;;;;5011301;28;20583;-73
2023/09/30 12:26:42;;;;;;;4.78;1.92;;;;;;;;;;5012062;28;20053;-73
2023/09/30 12:29:09;;;;;;;9.52;2.40;;;;;;;;;;5012928;28;20060;-74
2023/09/30 12:31:36;;;;;;;9.55;2.40;;;;;;;;;;5022736;28;20049;-73
2023/09/30 12:34:02;;;;;;;8.10;2.38;;;;;;;;;;5015044;28;20037;-74
2023/09/30 12:36:28;;;;;;;9.70;2.40;;;;;;;;;;5011780;28;20510;-74
2023/09/30 12:38:54;;;;;;;7.32;2.00;;;;;;;;;;5011393;28;20116;-73
2023/09/30 12:41:21;;;;;;;10.55;2.25;;;;;;;;;;5018787;28;20120;-73
2023/09/30 12:43:47;;;;;;;7.95;2.22;;;;;;;;;;5017599;28;20104;-74
2023/09/30 12:46:13;;;;;;;10.02;2.45;;;;;;;;;;5019085;28;20051;-73
2023/09/30 12:48:39;;;;;;;9.38;2.10;;;;;;;;;;5017546;28;20073;-73
2023/09/30 12:51:06;;;;;;;8.43;2.15;;;;;;;;;;5010835;28;20104;-73
2023/09/30 12:53:33;;;;;;;8.23;2.30;;;;;;;;;;5011257;28;20386;-73
2023/09/30 12:55:59;;;;;;;7.13;2.50;;;;;;;;;;5012642;28;20125;-73
2023/09/30 12:58:27;;;;;;;8.68;2.30;;;;;;;;;;5012282;28;20057;-73
2023/09/30 13:00:54;;;;;;;6.85;2.30;;;;;;;;;;5020169;28;20513;-73
2023/09/30 13:03:20;;;;;;;7.68;2.17;;;;;;;;;;5014432;28;20069;-73
2023/09/30 13:05:46;;;;;;;7.32;2.38;;;;;;;;;;5010669;28;20042;-73
2023/09/30 13:08:12;;;;;;;7.53;2.60;;;;;;;;;;5010026;28;20052;-74
2023/09/30 13:10:38;;;;;;;7.28;2.50;;;;;;;;;;5010698;28;20052;-73
2023/09/30 13:13:05;;;;;;;6.30;2.03;;;;;;;;;;5022800;28;20042;-73
2023/09/30 13:15:31;;;;;;;6.10;2.10;;;;;;;;;;5011956;28;20042;-73
2023/09/30 13:17:58;;;;;;;6.95;2.03;;;;;;;;;;5011014;28;20461;-74
2023/09/30 13:20:25;;;;;;;8.90;2.50;;;;;;;;;;5011771;28;20046;-73
2023/09/30 13:22:51;;;;;;;8.52;2.40;;;;;;;;;;5010196;28;20443;-73
2023/09/30 13:25:17;;;;;;;6.60;2.20;;;;;;;;;;5011855;28;20061;-73
2023/09/30 13:27:43;;;;;;;10.07;2.28;;;;;;;;;;5011611;28;20077;-73
2023/09/30 13:30:10;;;;;;;7.07;2.30;;;;;;;;;;5026870;28;20046;-73
2023/09/30 13:32:36;;;;;;;6.72;2.33;;;;;;;;;;5024234;28;20053;-73
2023/09/30 13:35:05;;;;;;;7.28;2.40;;;;;;;;;;5010469;28;20103;-73
2023/09/30 13:37:33;;;;;;;10.20;2.35;;;;;;;;;;5010430;28;20089;-74
2023/09/30 13:40:00;;;;;;;5.43;1.83;;;;;;;;;;5012203;28;20056;-73
2023/09/30 13:42:26;;;;;;;8.77;2.22;;;;;;;;;;5010410;28;20430;-73
2023/09/30 13:44:52;;;;;;;9.15;2.30;;;;;;;;;;5010937;28;20453;-74
2023/09/30 13:47:18;;;;;;;6.88;2.88;;;;;;;;;;5011117;28;20386;-73
2023/09/30 13:49:44;;;;;;;9.07;2.30;;;;;;;;;;5011765;28;20121;-73
2023/09/30 13:52:10;;;;;;;7.50;2.13;;;;;;;;;;5009915;28;20165;-73
2023/09/30 13:54:36;;;;;;;8.40;2.33;;;;;;;;;;5036893;28;20056;-74
2023/09/30 13:57:02;;;;;;;6.07;2.05;;;;;;;;;;5022108;28;20046;-73
2023/09/30 13:59:28;;;;;;;9.95;2.45;;;;;;;;;;5010364;28;20053;-73
2023/09/30 14:01:54;;;;;;;6.30;2.17;;;;;;;;;;5010304;28;20050;-73
2023/09/30 14:04:20;;;;;;;7.25;2.00;;;;;;;;;;5010163;28;20139;-73
2023/09/30 14:06:47;;;;;;;6.47;2.03;;;;;;;;;;5011341;28;20080;-73
2023/09/30 14:09:14;;;;;;;8.18;2.10;;;;;;;;;;5010539;28;20054;-73
2023/09/30 14:11:41;;;;;;;7.28;2.30;;;;;;;;;;5009890;28;20074;-73
2023/09/30 14:14:09;;;;;;;9.70;2.65;;;;;;;;;;5010362;28;20410;-73
2023/09/30 14:16:37;;;;;;;7.88;2.28;;;;;;;;;;5017673;28;20073;-73
2023/09/30 14:19:03;;;;;;;8.20;2.50;;;;;;;;;;5019540;28;20470;-74
2023/09/30 14:21:32;;;;;;;7.82;2.58;;;;;;;;;;5013740;28;20060;-74
2023/09/30 14:23:58;;;;;;;6.28;2.20;;;;;;;;;;5013161;28;20229;-74
2023/09/30 14:26:24;;;;;;;8.45;2.50;;;;;;;;;;5012869;28;20038;-74
2023/09/30 14:28:51;;;;;;;8.60;2.70;;;;;;;;;;5015064;28;20061;-73
2023/09/30 14:31:17;;;;;;;6.63;2.40;;;;;;;;;;5014436;28;20212;-73
2023/09/30 14:33:43;;;;;;;9.88;2.47;;;;;;;;;;5028003;28;20041;-74
2023/09/30 14:36:09;;;;;;;9.40;2.38;;;;;;;;;;5022919;28;20497;-74